Time;durP1;ratioP1;P1;durP2;ratioP2;P2;SDS_P1;SDS_P2;PMS_P1;PMS_P2;Temp;Humidity;BMP_temperature;BMP_pressure;BME280_temperature;BME280_humidity;BME280_pressure;Samples;Min_cycle;Max_cycle;Signal;HPM_P1;HPM_P2
2022/10/10 00:01:34;;;;;;;6.40;2.80;;;;;;;8.34;71.32;101409.09;5004216;28;20042;-69
2022/10/10 00:04:02;;;;;;;5.68;3.22;;;;;;;8.33;71.43;101402.09;4998583;28;20050;-69
2022/10/10 00:06:30;;;;;;;7.03;3.30;;;;;;;8.31;71.29;101396.00;5000670;28;20128;-69
2022/10/10 00:09:01;;;;;;;5.10;3.20;;;;;;;8.30;71.42;101403.91;5004974;28;20580;-69
2022/10/10 00:11:29;;;;;;;4.00;2.83;;;;;;;8.28;71.54;101400.41;4991716;28;20043;-69
2022/10/10 00:13:56;;;;;;;6.28;3.20;;;;;;;8.26;71.67;101395.19;4997552;28;20492;-69
2022/10/10 00:16:23;;;;;;;6.18;2.78;;;;;;;8.24;71.97;101389.06;5003450;28;20045;-69
2022/10/10 00:18:51;;;;;;;3.83;2.88;;;;;;;8.23;71.57;101397.84;5001983;28;20050;-69
2022/10/10 00:21:18;;;;;;;5.28;3.05;;;;;;;8.22;71.60;101397.00;5007168;28;20054;-69
2022/10/10 00:23:45;;;;;;;8.02;3.25;;;;;;;8.21;71.65;101389.09;5004950;28;20497;-69
2022/10/10 00:26:12;;;;;;;5.25;2.80;;;;;;;8.19;71.69;101394.38;5007721;28;20061;-69
2022/10/10 00:28:47;;;;;;;4.88;3.22;;;;;;;8.17;71.95;101392.69;5002618;28;20034;-68
2022/10/10 00:31:16;;;;;;;10.02;3.30;;;;;;;8.16;71.96;101386.53;5006926;28;20136;-69
2022/10/10 00:33:44;;;;;;;9.98;3.03;;;;;;;8.14;71.99;101387.44;5004598;28;20042;-68
2022/10/10 00:36:11;;;;;;;4.63;2.80;;;;;;;8.11;71.95;101380.47;5009126;28;20050;-67
2022/10/10 00:38:38;;;;;;;9.35;3.53;;;;;;;8.08;72.02;101383.13;4999447;28;20035;-67
2022/10/10 00:41:06;;;;;;;5.45;3.00;;;;;;;8.04;72.19;101377.06;4999957;28;20039;-67
2022/10/10 00:43:34;;;;;;;9.05;3.50;;;;;;;8.01;72.27;101387.56;4996324;28;20053;-67
2022/10/10 00:46:01;;;;;;;5.15;3.08;;;;;;;7.97;72.39;101385.00;4998961;28;20113;-67
2022/10/10 00:48:36;;;;;;;8.13;3.20;;;;;;;7.96;72.57;101388.50;5003109;28;20440;-67
2022/10/10 00:51:17;;;;;;;9.25;2.85;;;;;;;7.91;72.75;101376.31;5003035;28;20118;-68
2022/10/10 00:53:54;;;;;;;5.13;3.25;;;;;;;7.87;72.30;101379.84;4997240;28;20540;-67
2022/10/10 00:56:29;;;;;;;7.60;2.95;;;;;;;7.86;72.93;101377.25;4994005;28;20051;-67
2022/10/10 00:59:02;;;;;;;5.28;3.03;;;;;;;7.84;72.83;101381.63;4997307;28;20043;-68
2022/10/10 01:01:29;;;;;;;7.80;3.30;;;;;;;7.79;73.05;101381.69;4995579;28;20807;-68
2022/10/10 01:04:00;;;;;;;8.27;3.05;;;;;;;7.74;73.48;101383.47;4999883;28;20050;-68
2022/10/10 01:06:28;;;;;;;7.43;3.50;;;;;;;7.70;73.46;101376.53;5000243;28;20050;-68
2022/10/10 01:08:57;;;;;;;4.63;3.10;;;;;;;7.67;73.64;101374.81;5011684;28;20114;-68
2022/10/10 01:12:01;;;;;;;8.07;3.42;;;;;;;7.64;73.47;101373.94;5005013;28;20070;-68
2022/10/10 01:14:59;;;;;;;9.25;3.30;;;;;;;7.60;73.69;101373.13;5006436;28;20559;-68
2022/10/10 01:17:40;;;;;;;6.47;3.90;;;;;;;7.55;74.05;101364.44;5008017;28;20050;-68
2022/10/10 01:20:48;;;;;;;5.88;3.47;;;;;;;7.49;74.08;101367.97;5003804;28;20058;-67
2022/10/10 01:23:40;;;;;;;7.63;3.60;;;;;;;7.45;74.44;101361.91;5004458;28;20547;-68
2022/10/10 01:26:36;;;;;;;6.80;3.40;;;;;;;7.43;74.52;101365.38;5007963;28;20860;-68
2022/10/10 01:29:29;;;;;;;6.05;3.20;;;;;;;7.41;74.79;101361.94;4993312;28;20043;-68
2022/10/10 01:32:50;;;;;;;6.53;3.35;;;;;;;7.37;74.65;101363.72;5003740;28;20034;-71
2022/10/10 01:35:58;;;;;;;7.38;3.50;;;;;;;7.34;74.62;101358.50;5002890;28;20495;-71
2022/10/10 01:38:50;;;;;;;6.43;3.85;;;;;;;7.30;74.89;101351.53;5006644;28;20054;-68
2022/10/10 01:41:49;;;;;;;6.93;3.65;;;;;;;7.26;75.10;101355.94;5009718;28;20097;-69
2022/10/10 01:44:16;;;;;;;7.32;3.63;;;;;;;7.25;75.59;101351.56;5002973;28;20092;-69
2022/10/10 01:46:46;;;;;;;7.45;3.15;;;;;;;7.22;75.56;101345.47;5008337;28;20049;-69
2022/10/10 01:49:14;;;;;;;6.85;3.92;;;;;;;7.20;75.52;101340.25;4999738;28;20046;-69
2022/10/10 01:52:03;;;;;;;6.85;3.58;;;;;;;7.19;75.67;101340.25;4998942;28;20039;-69
2022/10/10 01:54:51;;;;;;;6.05;2.90;;;;;;;7.17;75.74;101335.03;4994409;28;20157;-69
2022/10/10 01:57:37;;;;;;;6.95;3.50;;;;;;;7.16;75.84;101335.91;5006731;28;20046;-69
2022/10/10 02:00:10;;;;;;;7.57;3.53;;;;;;;7.15;75.95;101336.78;5006175;28;20089;-67
2022/10/10 02:03:08;;;;;;;6.05;3.38;;;;;;;7.13;75.91;101333.28;5004755;28;20050;-67
2022/10/10 02:05:56;;;;;;;8.52;3.30;;;;;;;7.09;75.86;101331.59;4999841;28;20042;-67
2022/10/10 02:08:38;;;;;;;5.43;3.40;;;;;;;7.06;75.90;101327.25;4997433;28;20065;-67
2022/10/10 02:11:10;;;;;;;5.25;3.45;;;;;;;7.02;75.80;101314.19;5006413;28;20049;-67
2022/10/10 02:13:48;;;;;;;6.85;3.50;;;;;;;6.98;75.91;101313.31;5003767;28;20052;-67
2022/10/10 02:16:33;;;;;;;11.07;3.47;;;;;;;6.93;76.01;101312.50;4997641;28;20045;-67
2022/10/10 02:19:07;;;;;;;8.00;3.30;;;;;;;6.89;75.94;101311.66;5006572;28;20061;-67
2022/10/10 02:21:39;;;;;;;6.03;3.15;;;;;;;6.85;76.35;101309.94;4996145;28;20046;-67
2022/10/10 02:24:09;;;;;;;8.15;3.40;;;;;;;6.82;76.16;101307.31;5001125;28;20097;-67
2022/10/10 02:26:40;;;;;;;4.95;3.35;;;;;;;6.78;76.23;101301.22;5000984;28;20086;-66
2022/10/10 02:29:25;;;;;;;6.90;3.67;;;;;;;6.78;76.36;101301.22;5007875;28;20042;-67
2022/10/10 02:32:20;;;;;;;4.55;3.50;;;;;;;6.76;76.28;101294.28;5005942;28;20110;-67
2022/10/10 02:34:51;;;;;;;;;;;;;;;6.73;75.92;101295.16;5000104;28;20043;-66
2022/10/10 02:37:20;;;;;;;5.70;3.60;;;;;;;6.73;76.03;101303.03;5004500;28;19934;-67
2022/10/10 02:39:55;;;;;;;6.75;3.33;;;;;;;6.75;76.18;101298.66;4996332;28;20046;-67
2022/10/10 02:42:25;;;;;;;8.15;4.25;;;;;;;6.74;76.12;101291.66;5002193;28;20121;-67
2022/10/10 02:44:53;;;;;;;7.80;3.78;;;;;;;6.76;76.20;101300.41;5006507;28;20047;-67
2022/10/10 02:47:20;;;;;;;6.63;3.53;;;;;;;6.79;76.50;101295.13;5007901;28;20047;-67
2022/10/10 02:49:48;;;;;;;7.38;3.65;;;;;;;6.78;76.33;101298.59;4994044;28;20051;-67
2022/10/10 02:52:15;;;;;;;5.53;3.55;;;;;;;6.81;76.65;101290.72;4995295;28;20042;-68
2022/10/10 02:54:43;;;;;;;6.50;3.58;;;;;;;6.81;76.40;101290.72;5003775;28;20066;-68
2022/10/10 02:57:11;;;;;;;4.05;3.50;;;;;;;6.80;76.55;101294.22;5002221;28;20050;-67
2022/10/10 02:59:38;;;;;;;6.38;3.65;;;;;;;6.81;76.69;101282.03;5003794;28;20566;-67
2022/10/10 03:02:06;;;;;;;6.57;3.53;;;;;;;6.83;76.91;101286.34;4997341;28;20039;-67
2022/10/10 03:04:34;;;;;;;7.13;3.50;;;;;;;6.85;76.91;101286.34;4994782;28;20046;-68
2022/10/10 03:07:04;;;;;;;6.32;3.83;;;;;;;6.85;77.02;101286.34;5007227;28;20049;-67
2022/10/10 03:09:32;;;;;;;9.05;3.83;;;;;;;6.83;77.13;101280.22;5010358;28;20050;-68
2022/10/10 03:11:59;;;;;;;9.20;4.05;;;;;;;6.81;77.21;101282.88;4999902;28;20047;-68
2022/10/10 03:14:26;;;;;;;7.72;3.70;;;;;;;6.81;77.30;101280.25;5002889;28;20039;-68
2022/10/10 03:16:53;;;;;;;6.03;3.60;;;;;;;6.79;77.23;101268.91;4999456;28;20157;-68
2022/10/10 03:19:20;;;;;;;5.72;3.70;;;;;;;6.80;77.30;101277.66;5012427;28;20059;-68
2022/10/10 03:21:47;;;;;;;6.38;3.70;;;;;;;6.81;77.37;101269.78;5008793;28;20038;-68
2022/10/10 03:24:14;;;;;;;7.45;3.70;;;;;;;6.81;77.28;101272.38;5006796;28;20046;-68
2022/10/10 03:26:41;;;;;;;6.95;4.00;;;;;;;6.81;77.25;101275.00;5008261;28;20042;-68
2022/10/10 03:29:08;;;;;;;8.43;3.72;;;;;;;6.81;77.57;101272.38;4997689;28;20482;-68
2022/10/10 03:31:36;;;;;;;7.82;4.07;;;;;;;6.81;77.58;101272.38;5009336;28;20077;-68
2022/10/10 03:34:03;;;;;;;6.95;3.47;;;;;;;6.84;78.22;101269.75;5000699;28;20125;-69
2022/10/10 03:36:30;;;;;;;7.88;4.35;;;;;;;6.83;78.23;101268.00;5007816;28;20525;-69
2022/10/10 03:38:57;;;;;;;6.22;3.55;;;;;;;6.84;78.02;101269.75;4992164;28;20061;-69
2022/10/10 03:41:24;;;;;;;7.13;3.80;;;;;;;6.82;78.07;101270.63;5009681;28;20073;-69
2022/10/10 03:43:51;;;;;;;7.60;3.75;;;;;;;6.79;77.95;101266.28;5005608;28;20416;-68
2022/10/10 03:46:18;;;;;;;6.60;3.47;;;;;;;6.79;77.88;101270.66;4998659;28;20050;-69
2022/10/10 03:48:46;;;;;;;8.95;4.15;;;;;;;6.75;78.10;101264.59;5011637;28;20043;-68
2022/10/10 03:51:13;;;;;;;8.75;3.97;;;;;;;6.75;78.01;101266.31;5009513;28;20056;-68
2022/10/10 03:53:40;;;;;;;8.90;4.00;;;;;;;6.76;78.34;101263.72;5009556;28;20051;-69
2022/10/10 03:56:07;;;;;;;11.85;3.85;;;;;;;6.75;78.56;101264.59;5008864;28;20062;-69
2022/10/10 03:58:35;;;;;;;9.15;3.80;;;;;;;6.74;78.56;101264.56;5007938;28;20045;-69
2022/10/10 04:01:04;;;;;;;8.57;4.13;;;;;;;6.71;78.42;101260.25;5006920;28;20043;-69
2022/10/10 04:03:31;;;;;;;7.70;3.85;;;;;;;6.70;78.59;101255.88;5010295;28;20044;-69
2022/10/10 04:05:59;;;;;;;6.00;3.80;;;;;;;6.73;78.64;101268.97;5005180;28;20058;-69
2022/10/10 04:08:27;;;;;;;5.55;4.03;;;;;;;6.75;79.19;101253.22;5007273;28;20042;-69
2022/10/10 04:10:54;;;;;;;7.13;4.50;;;;;;;6.76;79.09;101266.34;5006501;28;20077;-69
2022/10/10 04:13:24;;;;;;;5.53;4.07;;;;;;;6.76;79.12;101263.72;4999478;28;20035;-69
2022/10/10 04:15:54;;;;;;;5.63;3.85;;;;;;;6.75;78.89;101259.34;4996986;28;20058;-69
2022/10/10 04:18:23;;;;;;;6.53;3.67;;;;;;;6.79;79.29;101253.19;5009010;28;20520;-69
2022/10/10 04:20:51;;;;;;;8.80;4.13;;;;;;;6.78;79.29;101256.69;5006918;28;20051;-69
2022/10/10 04:23:19;;;;;;;7.50;4.20;;;;;;;6.80;79.48;101261.94;5002070;28;20054;-69
2022/10/10 04:25:51;;;;;;;7.50;4.22;;;;;;;6.81;79.30;101259.28;4995770;28;20050;-69
2022/10/10 04:28:18;;;;;;;7.95;4.07;;;;;;;6.82;79.57;101260.13;5004891;28;20043;-67
2022/10/10 04:30:47;;;;;;;7.63;4.00;;;;;;;6.82;79.60;101257.53;5000480;28;20072;-68
2022/10/10 04:33:14;;;;;;;10.05;4.50;;;;;;;6.82;79.67;101265.38;5011643;28;20042;-68
2022/10/10 04:35:41;;;;;;;8.73;4.07;;;;;;;6.82;79.88;101254.91;5005151;28;20050;-69
2022/10/10 04:38:09;;;;;;;7.47;4.20;;;;;;;6.81;79.78;101253.19;4995961;28;20425;-67
2022/10/10 04:40:36;;;;;;;8.77;4.25;;;;;;;6.81;80.05;101261.91;5009161;28;20042;-67
2022/10/10 04:43:03;;;;;;;6.47;4.10;;;;;;;6.81;80.23;101255.81;5009616;28;20085;-68
2022/10/10 04:45:31;;;;;;;7.55;3.97;;;;;;;6.84;80.40;101251.41;4995225;28;20058;-68
2022/10/10 04:48:03;;;;;;;10.40;4.35;;;;;;;6.91;80.51;101256.59;5001116;28;20070;-69
2022/10/10 04:50:31;;;;;;;7.05;4.53;;;;;;;6.95;80.45;101253.06;5000802;28;20057;-68
2022/10/10 04:53:00;;;;;;;6.97;4.30;;;;;;;6.97;80.38;101252.16;5005072;28;20039;-68
2022/10/10 04:55:28;;;;;;;8.48;4.35;;;;;;;7.02;80.60;101262.59;4997483;28;20043;-68
2022/10/10 04:57:57;;;;;;;10.30;4.32;;;;;;;7.07;80.47;101257.31;5003868;28;20121;-68
2022/10/10 05:00:24;;;;;;;6.35;4.03;;;;;;;7.11;80.99;101259.91;5011024;28;20472;-68
2022/10/10 05:02:51;;;;;;;14.50;4.40;;;;;;;7.20;81.00;101255.44;5006285;28;20038;-70
2022/10/10 05:05:19;;;;;;;10.00;3.80;;;;;;;7.23;80.68;101258.06;5001280;28;20982;-68
2022/10/10 05:07:46;;;;;;;8.00;3.80;;;;;;;7.23;80.40;101252.81;5006198;28;20161;-67
2022/10/10 05:10:19;;;;;;;8.55;5.18;;;;;;;7.20;80.32;101251.09;5015314;28;20519;-67
2022/10/10 05:12:48;;;;;;;7.28;4.53;;;;;;;7.21;80.21;101262.44;5006242;28;20730;-70
2022/10/10 05:15:16;;;;;;;7.30;4.35;;;;;;;7.21;80.37;101254.56;5012040;28;20046;-69
2022/10/10 05:17:43;;;;;;;9.43;4.20;;;;;;;7.20;80.31;101256.34;5002715;28;20533;-67
2022/10/10 05:20:10;;;;;;;11.80;4.32;;;;;;;7.19;80.25;101251.09;5007191;28;20046;-67
2022/10/10 05:22:37;;;;;;;9.52;4.20;;;;;;;7.17;80.36;101255.50;4999670;28;20047;-67
2022/10/10 05:25:07;;;;;;;11.07;4.55;;;;;;;7.15;80.30;101256.38;5010685;28;20896;-69
2022/10/10 05:27:34;;;;;;;9.00;4.47;;;;;;;7.10;80.19;101246.81;5006496;28;20461;-69
2022/10/10 05:30:01;;;;;;;11.75;4.63;;;;;;;7.08;80.19;101253.81;5022496;28;20043;-68
2022/10/10 05:32:28;;;;;;;9.27;4.00;;;;;;;7.04;80.45;101247.75;5008241;28;20113;-67
2022/10/10 05:34:55;;;;;;;9.95;4.40;;;;;;;7.02;80.42;101248.66;5009440;28;20056;-68
2022/10/10 05:37:22;;;;;;;6.80;4.03;;;;;;;7.00;80.52;101259.13;5002866;28;20590;-68
2022/10/10 05:39:49;;;;;;;9.68;4.47;;;;;;;6.97;80.56;101253.91;5010448;28;20042;-69
2022/10/10 05:42:22;;;;;;;8.60;4.35;;;;;;;6.95;80.63;101256.53;5010478;28;20448;-70
2022/10/10 05:44:49;;;;;;;6.57;4.07;;;;;;;6.93;80.49;101260.06;5005067;28;20130;-68
2022/10/10 05:47:17;;;;;;;7.00;4.60;;;;;;;6.90;80.46;101260.09;5008277;28;20053;-68
2022/10/10 05:49:45;;;;;;;8.95;4.50;;;;;;;6.87;80.71;101262.75;5010688;28;20058;-68
2022/10/10 05:52:12;;;;;;;9.27;4.38;;;;;;;6.86;80.69;101263.63;4999676;28;20117;-68
2022/10/10 05:54:39;;;;;;;7.70;4.50;;;;;;;6.84;80.82;101263.63;4991719;28;20047;-68
2022/10/10 05:57:06;;;;;;;7.93;4.22;;;;;;;6.81;80.76;101259.28;4991223;28;20114;-70
2022/10/10 05:59:33;;;;;;;8.52;4.32;;;;;;;6.81;80.86;101261.91;4993147;28;20046;-67
2022/10/10 06:02:01;;;;;;;6.68;4.30;;;;;;;6.80;80.76;101261.94;5011709;28;20536;-67
2022/10/10 06:04:28;;;;;;;11.57;4.78;;;;;;;6.79;80.60;101254.94;5009783;28;20035;-70
2022/10/10 06:06:55;;;;;;;13.45;4.78;;;;;;;6.79;80.71;101260.19;5007600;28;20053;-69
2022/10/10 06:09:23;;;;;;;9.45;4.55;;;;;;;6.79;80.79;101263.66;5001370;28;20082;-70
2022/10/10 06:11:50;;;;;;;8.95;5.10;;;;;;;6.78;81.20;101259.31;5014430;28;20035;-70
2022/10/10 06:14:17;;;;;;;6.57;4.43;;;;;;;6.81;80.87;101258.44;5014934;28;20848;-69
2022/10/10 06:16:45;;;;;;;7.55;4.75;;;;;;;6.82;80.86;101263.66;5010713;28;20120;-69
2022/10/10 06:19:12;;;;;;;10.70;4.85;;;;;;;6.83;80.90;101262.78;5004559;28;20054;-69
2022/10/10 06:21:41;;;;;;;6.68;4.70;;;;;;;6.87;80.96;101262.75;4995186;28;20053;-70
2022/10/10 06:24:09;;;;;;;7.97;4.50;;;;;;;6.92;81.09;101253.09;5004330;28;20034;-69
2022/10/10 06:26:36;;;;;;;8.50;4.78;;;;;;;6.99;81.26;101260.91;5010998;28;20133;-69
2022/10/10 06:29:04;;;;;;;11.27;5.68;;;;;;;7.07;81.29;101265.19;5014605;28;20054;-69
2022/10/10 06:31:32;;;;;;;12.05;6.45;;;;;;;7.11;81.21;101267.78;5014448;28;20531;-70
2022/10/10 06:33:59;;;;;;;12.32;7.00;;;;;;;7.19;81.47;101261.56;5012576;28;20046;-69
2022/10/10 06:36:27;;;;;;;13.05;7.75;;;;;;;7.26;81.43;101277.25;5014808;28;20043;-69
2022/10/10 06:38:55;;;;;;;11.52;7.60;;;;;;;7.32;81.39;101268.44;5022082;28;20045;-70
2022/10/10 06:41:23;;;;;;;13.23;7.32;;;;;;;7.38;81.58;101272.75;5014801;28;20053;-69
2022/10/10 06:43:51;;;;;;;12.13;6.10;;;;;;;7.45;81.58;101272.69;5011924;28;20053;-69
2022/10/10 06:46:18;;;;;;;14.30;6.05;;;;;;;7.50;81.56;101269.13;5013844;28;20053;-69
2022/10/10 06:48:45;;;;;;;9.25;5.53;;;;;;;7.57;81.56;101276.94;5010503;28;20038;-69
2022/10/10 06:51:16;;;;;;;9.02;5.50;;;;;;;7.66;81.24;101278.59;5005072;28;20043;-69
2022/10/10 06:53:45;;;;;;;14.70;5.72;;;;;;;7.72;81.52;101280.28;4999998;28;20049;-69
2022/10/10 06:56:19;;;;;;;11.05;6.55;;;;;;;7.76;81.60;101287.22;5014535;28;20046;-69
2022/10/10 06:58:56;;;;;;;11.93;9.35;;;;;;;7.81;81.71;101282.81;5010324;28;20424;-69
2022/10/10 07:01:25;;;;;;;11.98;6.25;;;;;;;7.83;81.50;101275.78;4992933;28;20039;-69
2022/10/10 07:03:52;;;;;;;10.68;6.25;;;;;;;7.91;81.61;101284.44;4993863;28;20099;-69
2022/10/10 07:06:19;;;;;;;10.30;6.82;;;;;;;8.00;81.60;101287.81;5011990;28;20038;-69
2022/10/10 07:08:47;;;;;;;9.02;6.30;;;;;;;8.06;81.18;101277.22;5015895;28;20053;-69
2022/10/10 07:11:14;;;;;;;9.88;5.78;;;;;;;8.18;81.36;101286.72;5025766;28;20116;-69
2022/10/10 07:13:41;;;;;;;7.80;5.30;;;;;;;8.27;81.12;101283.97;5015593;28;20563;-69
2022/10/10 07:16:10;;;;;;;9.98;5.88;;;;;;;8.37;81.19;101290.84;5004001;28;20520;-69
2022/10/10 07:18:37;;;;;;;10.18;5.70;;;;;;;8.46;81.11;101289.81;5011264;28;20043;-69
2022/10/10 07:21:05;;;;;;;10.75;5.68;;;;;;;8.58;81.10;101287.94;5011957;28;20765;-69
2022/10/10 07:23:32;;;;;;;13.50;5.57;;;;;;;8.70;80.85;101287.78;5009854;28;20080;-69
2022/10/10 07:26:04;;;;;;;11.32;5.90;;;;;;;8.84;80.79;101287.56;5004918;28;20078;-69
2022/10/10 07:28:32;;;;;;;12.18;6.10;;;;;;;9.00;80.61;101293.44;5003580;28;20038;-69
2022/10/10 07:31:07;;;;;;;10.50;5.50;;;;;;;9.11;80.46;101291.50;5012603;28;20042;-69
2022/10/10 07:33:42;;;;;;;11.18;4.93;;;;;;;9.27;80.37;101294.72;5001116;28;20508;-70
2022/10/10 07:36:17;;;;;;;10.32;5.45;;;;;;;9.41;80.29;101296.25;4999221;28;20857;-70
2022/10/10 07:38:44;;;;;;;11.48;5.63;;;;;;;9.52;79.93;101296.03;5001569;28;20085;-69
2022/10/10 07:41:12;;;;;;;9.45;5.13;;;;;;;9.64;79.91;101295.81;5007338;28;20480;-69
2022/10/10 07:43:40;;;;;;;12.90;5.80;;;;;;;9.76;79.69;101295.59;5012886;28;20042;-70
2022/10/10 07:46:18;;;;;;;8.70;5.00;;;;;;;9.86;79.20;101293.63;5012775;28;20049;-70
2022/10/10 07:48:48;;;;;;;11.52;5.80;;;;;;;9.92;79.31;101298.75;5003044;28;20050;-70
2022/10/10 07:51:17;;;;;;;11.75;5.60;;;;;;;10.02;79.15;101304.72;5018701;28;20039;-70
2022/10/10 07:53:44;;;;;;;9.27;5.30;;;;;;;10.13;79.18;101299.22;5023395;28;20047;-70
2022/10/10 07:56:11;;;;;;;12.88;5.88;;;;;;;10.25;78.90;101309.50;5012561;28;20045;-70
2022/10/10 07:58:38;;;;;;;9.95;5.75;;;;;;;10.36;78.65;101311.03;5012424;28;20043;-70
2022/10/10 08:01:09;;;;;;;10.82;5.63;;;;;;;10.47;78.54;101310.84;5011332;28;20034;-70
2022/10/10 08:03:37;;;;;;;17.35;6.22;;;;;;;10.63;78.43;101311.38;5012471;28;20408;-70
2022/10/10 08:06:08;;;;;;;10.80;5.97;;;;;;;10.78;78.29;101311.00;5012987;28;20038;-70
2022/10/10 08:08:36;;;;;;;10.93;5.93;;;;;;;10.96;78.31;101311.44;5027778;28;20093;-70
2022/10/10 08:11:17;;;;;;;8.07;5.15;;;;;;;11.18;78.22;101306.53;5025522;28;20109;-70
2022/10/10 08:13:44;;;;;;;10.02;5.32;;;;;;;11.42;77.91;101312.94;5012750;28;20054;-70
2022/10/10 08:16:13;;;;;;;10.88;5.68;;;;;;;11.61;77.67;101310.66;5012993;28;20046;-70
2022/10/10 08:18:40;;;;;;;13.32;5.28;;;;;;;11.77;77.30;101313.75;5013068;28;20101;-70
2022/10/10 08:21:10;;;;;;;14.25;5.50;;;;;;;12.00;76.47;101317.53;5014228;28;20058;-70
2022/10/10 08:23:38;;;;;;;11.50;4.85;;;;;;;12.20;75.87;101319.63;5032275;28;20030;-70
2022/10/10 08:26:11;;;;;;;10.23;5.60;;;;;;;12.38;75.40;101314.69;5027352;28;20039;-70
2022/10/10 08:28:39;;;;;;;9.45;5.35;;;;;;;12.57;75.17;101312.31;5012395;28;20042;-70
2022/10/10 08:31:18;;;;;;;10.98;4.95;;;;;;;12.73;74.72;101313.59;5012337;28;20049;-69
2022/10/10 08:33:47;;;;;;;13.10;5.22;;;;;;;12.84;74.50;101312.38;5013044;28;20046;-69
2022/10/10 08:36:22;;;;;;;10.35;5.10;;;;;;;13.04;74.22;101311.72;5016780;28;20045;-69
2022/10/10 08:38:55;;;;;;;12.38;5.07;;;;;;;13.14;73.53;101314.94;5031827;28;20042;-69
2022/10/10 08:41:50;;;;;;;7.75;5.47;;;;;;;13.22;73.28;101325.28;5019552;28;20393;-69
2022/10/10 08:44:27;;;;;;;11.38;5.25;;;;;;;13.32;73.56;101324.06;4989540;28;20067;-69
2022/10/10 08:47:21;;;;;;;10.40;4.95;;;;;;;13.51;72.44;101321.66;4992782;28;20562;-70
2022/10/10 08:50:22;;;;;;;8.40;4.65;;;;;;;13.57;72.26;101321.44;5000834;28;20046;-71
2022/10/10 08:53:05;;;;;;;10.45;4.60;;;;;;;13.69;72.60;101319.25;5018454;28;20046;-70
2022/10/10 08:55:37;;;;;;;8.40;4.82;;;;;;;13.79;72.52;101321.53;5016454;28;20521;-70
2022/10/10 08:58:22;;;;;;;9.55;4.35;;;;;;;13.92;71.67;101319.28;5011678;28;20039;-69
2022/10/10 09:01:23;;;;;;;12.32;5.18;;;;;;;14.08;71.86;101314.28;5012251;28;20851;-70
2022/10/10 09:04:02;;;;;;;13.90;5.75;;;;;;;14.29;71.83;101309.94;4991375;28;20051;-70
2022/10/10 09:07:01;;;;;;;;;;;;;;;14.49;71.84;101313.66;5006067;28;20113;-70
2022/10/10 09:10:00;;;;;;;7.78;4.35;;;;;;;14.67;70.55;101309.41;5011696;28;19929;-70
2022/10/10 09:13:11;;;;;;;12.30;4.53;;;;;;;14.80;70.01;101306.25;4998623;28;20042;-70
2022/10/10 09:15:58;;;;;;;11.38;4.10;;;;;;;14.94;68.66;101316.31;5007907;28;20042;-69
2022/10/10 09:19:29;;;;;;;9.73;4.32;;;;;;;14.98;69.02;101316.13;4992339;28;20043;-69
2022/10/10 09:22:05;;;;;;;10.35;4.10;;;;;;;15.04;68.70;101321.19;4992571;28;20102;-69
2022/10/10 09:24:42;;;;;;;9.52;3.97;;;;;;;15.13;69.10;101327.06;5004602;28;20733;-69
2022/10/10 09:27:26;;;;;;;7.30;3.85;;;;;;;15.21;68.51;101332.91;5011562;28;20101;-69
2022/10/10 09:30:12;;;;;;;8.80;3.95;;;;;;;15.27;68.02;101326.47;4992537;28;20117;-69
2022/10/10 09:33:25;;;;;;;9.23;3.75;;;;;;;15.44;67.54;101325.75;4992469;28;20491;-69
2022/10/10 09:35:56;;;;;;;9.02;3.78;;;;;;;15.55;67.66;101331.47;4991761;28;20509;-69
2022/10/10 09:38:48;;;;;;;7.43;3.80;;;;;;;15.69;67.24;101333.50;4993725;28;20504;-69
2022/10/10 09:41:30;;;;;;;8.70;4.07;;;;;;;15.82;66.17;101323.19;4992198;28;20066;-68
2022/10/10 09:44:02;;;;;;;12.48;4.10;;;;;;;15.96;66.42;101323.47;4995154;28;20072;-68
2022/10/10 09:46:30;;;;;;;8.95;3.88;;;;;;;16.13;66.84;101321.84;5011059;28;20120;-69
2022/10/10 09:48:58;;;;;;;7.55;3.90;;;;;;;16.33;65.92;101312.91;5010552;28;20104;-68
2022/10/10 09:51:25;;;;;;;10.57;4.15;;;;;;;16.49;65.97;101326.34;5010456;28;20069;-68
2022/10/10 09:53:52;;;;;;;8.77;4.07;;;;;;;16.61;65.57;101324.94;5022892;28;20047;-70
2022/10/10 09:56:25;;;;;;;7.97;4.13;;;;;;;16.67;64.66;101331.75;5011773;28;20038;-70
2022/10/10 09:58:54;;;;;;;9.70;3.92;;;;;;;16.65;64.78;101342.47;5010673;28;20046;-68
2022/10/10 10:01:27;;;;;;;7.93;3.40;;;;;;;16.65;64.49;101342.47;5011246;28;20101;-68
2022/10/10 10:04:18;;;;;;;10.63;3.78;;;;;;;16.63;63.48;101346.13;5010750;28;20061;-68
2022/10/10 10:07:25;;;;;;;11.35;3.78;;;;;;;16.70;63.48;101343.13;5011592;28;20045;-68
2022/10/10 10:10:00;;;;;;;8.75;4.00;;;;;;;16.79;63.93;101346.25;5028736;28;20121;-68
2022/10/10 10:12:46;;;;;;;19.08;4.60;;;;;;;16.87;64.16;101344.97;5031106;28;20045;-71
2022/10/10 10:15:28;;;;;;;10.38;3.80;;;;;;;16.97;63.08;101339.22;4999637;28;20043;-68
2022/10/10 10:18:26;;;;;;;7.95;3.40;;;;;;;17.04;63.01;101338.81;4992792;28;20137;-69
2022/10/10 10:21:05;;;;;;;8.95;3.58;;;;;;;17.25;62.03;101346.66;5008471;28;20062;-70
2022/10/10 10:23:59;;;;;;;12.13;3.92;;;;;;;17.39;61.73;101341.50;4999302;28;20545;-68
2022/10/10 10:26:47;;;;;;;8.13;3.28;;;;;;;17.56;62.34;101339.78;4991388;28;20070;-68
2022/10/10 10:29:29;;;;;;;10.45;3.63;;;;;;;17.66;60.45;101340.16;4997116;28;20105;-68
2022/10/10 10:32:21;;;;;;;7.68;3.55;;;;;;;17.63;61.35;101348.31;5004290;28;20042;-68
2022/10/10 10:35:16;;;;;;;9.50;4.00;;;;;;;17.64;61.41;101350.03;5010771;28;20074;-68
2022/10/10 10:38:02;;;;;;;11.77;3.60;;;;;;;17.61;62.00;101353.75;5008340;28;20054;-68
2022/10/10 10:40:41;;;;;;;11.32;3.40;;;;;;;17.66;61.45;101350.84;5008913;28;20035;-70
2022/10/10 10:43:17;;;;;;;13.55;3.78;;;;;;;17.68;61.33;101347.13;5010658;28;20097;-70
2022/10/10 10:46:04;;;;;;;9.32;3.08;;;;;;;17.73;61.65;101349.56;5005462;28;20089;-68
2022/10/10 10:49:31;;;;;;;10.70;3.83;;;;;;;17.78;60.30;101344.00;5004968;28;20055;-68
2022/10/10 10:52:37;;;;;;;11.75;3.83;;;;;;;17.81;60.87;101349.16;4993704;28;20058;-70
2022/10/10 10:55:29;;;;;;;6.97;2.85;;;;;;;17.88;61.40;101350.56;5014643;28;20046;-71
2022/10/10 10:58:36;;;;;;;10.63;3.05;;;;;;;17.97;59.99;101360.75;5011556;28;20050;-70
2022/10/10 11:01:33;;;;;;;10.98;3.03;;;;;;;18.07;60.06;101357.59;4994973;28;20039;-70
2022/10/10 11:05:00;;;;;;;7.93;2.85;;;;;;;18.13;58.98;101355.47;5006183;28;20149;-69
2022/10/10 11:08:25;;;;;;;6.90;2.85;;;;;;;18.21;59.72;101348.88;5014077;28;20042;-70
2022/10/10 11:11:03;;;;;;;13.95;3.28;;;;;;;18.30;59.04;101354.56;5018944;28;20085;-70
2022/10/10 11:13:59;;;;;;;11.35;2.60;;;;;;;18.41;58.56;101358.44;5005883;28;20153;-70
2022/10/10 11:16:52;;;;;;;11.38;3.20;;;;;;;18.59;58.56;101362.75;5008025;28;20045;-70
2022/10/10 11:19:37;;;;;;;10.20;2.97;;;;;;;18.59;57.65;101365.41;5006656;28;20052;-69
2022/10/10 11:22:12;;;;;;;13.82;2.60;;;;;;;18.51;57.43;101369.50;5014190;28;20039;-70
2022/10/10 11:24:51;;;;;;;10.73;2.72;;;;;;;18.59;57.55;101376.09;5009058;28;20038;-70
2022/10/10 11:27:44;;;;;;;11.75;2.30;;;;;;;18.86;55.66;101375.53;5015007;28;20038;-71
2022/10/10 11:30:19;;;;;;;7.53;2.45;;;;;;;18.97;55.89;101380.25;4999398;28;20055;-70
2022/10/10 11:33:15;;;;;;;10.32;2.53;;;;;;;18.91;55.73;101377.94;5014011;28;20038;-70
2022/10/10 11:36:14;;;;;;;11.00;2.45;;;;;;;18.80;54.81;101375.84;4996774;28;20051;-69
2022/10/10 11:38:51;;;;;;;6.90;2.13;;;;;;;18.70;54.97;101378.19;5001556;28;20548;-70
2022/10/10 11:41:29;;;;;;;6.25;2.10;;;;;;;18.81;55.65;101377.56;5012901;28;20046;-70
2022/10/10 11:44:15;;;;;;;8.73;2.33;;;;;;;18.92;55.61;101383.16;5013315;28;20039;-71
2022/10/10 11:46:55;;;;;;;11.07;2.13;;;;;;;19.05;54.00;101380.69;4996108;28;20126;-68
2022/10/10 11:49:47;;;;;;;10.73;2.30;;;;;;;19.09;53.62;101386.69;4994640;28;20050;-68
2022/10/10 11:52:28;;;;;;;7.57;2.00;;;;;;;19.26;53.59;101382.22;4994703;28;20047;-70
2022/10/10 11:55:09;;;;;;;6.85;2.72;;;;;;;19.07;53.40;101391.31;5006557;28;20051;-69
2022/10/10 11:57:53;;;;;;;5.68;2.10;;;;;;;19.11;52.69;101387.47;4994304;28;20042;-69
2022/10/10 12:00:21;;;;;;;5.88;2.60;;;;;;;19.25;52.49;101389.34;5000814;28;20039;-69
2022/10/10 12:02:48;;;;;;;8.38;2.65;;;;;;;19.32;52.80;101374.69;4999331;28;20096;-69
2022/10/10 12:05:25;;;;;;;11.07;2.58;;;;;;;19.45;53.11;101379.28;4994233;28;20054;-70
2022/10/10 12:08:33;;;;;;;20.45;3.30;;;;;;;19.50;53.13;101378.06;4995322;28;20520;-69